createdAt,value
2022-08-31T00:03:41.588Z,0.93
2022-08-31T00:08:48.620Z,1.33
2022-08-31T00:13:55.636Z,1.51
2022-08-31T00:19:02.759Z,1.90
2022-08-31T00:24:09.798Z,1.47
2022-08-31T00:29:16.979Z,1.04
2022-08-31T00:34:23.883Z,1.70
2022-08-31T00:39:31.108Z,2.06
2022-08-31T00:44:38.197Z,1.91
2022-08-31T00:49:45.334Z,0.99
2022-08-31T00:54:52.320Z,1.45
2022-08-31T00:59:59.317Z,1.04
2022-08-31T01:05:06.230Z,1.54
2022-08-31T01:10:13.363Z,1.32
2022-08-31T01:15:20.332Z,1.09
2022-08-31T01:20:27.480Z,1.27
2022-08-31T01:25:34.410Z,2.00
2022-08-31T01:30:41.536Z,0.87
2022-08-31T01:35:48.473Z,0.93
2022-08-31T01:40:55.579Z,1.55
2022-08-31T01:46:02.502Z,1.65
2022-08-31T01:51:09.109Z,1.58
2022-08-31T01:56:15.618Z,1.03
2022-08-31T02:01:32.929Z,1.01
2022-08-31T02:06:29.229Z,1.95
2022-08-31T02:11:36.344Z,0.78
2022-08-31T02:16:43.274Z,1.35
2022-08-31T02:21:50.287Z,1.35
2022-08-31T02:26:57.290Z,2.20
2022-08-31T02:32:04.400Z,1.24
2022-08-31T02:37:11.339Z,0.80
2022-08-31T02:42:18.574Z,1.51
2022-08-31T02:47:24.923Z,1.07
2022-08-31T02:52:32.033Z,0.95
2022-08-31T02:57:38.978Z,2.48
2022-08-31T03:02:46.101Z,4.23
2022-08-31T03:07:52.936Z,1.20
2022-08-31T03:13:00.176Z,2.00
2022-08-31T03:18:07.132Z,1.22
2022-08-31T03:23:14.233Z,1.07
2022-08-31T03:28:21.098Z,4.81
2022-08-31T03:33:28.145Z,2.12
2022-08-31T03:38:35.086Z,1.57
2022-08-31T03:43:42.263Z,1.81
2022-08-31T03:48:48.746Z,1.26
2022-08-31T03:53:56.034Z,1.56
2022-08-31T03:59:02.966Z,1.60
2022-08-31T04:04:10.092Z,2.01
2022-08-31T04:09:17.117Z,1.42
2022-08-31T04:14:24.193Z,1.54
2022-08-31T04:19:31.578Z,1.63
2022-08-31T04:24:37.721Z,1.34
2022-08-31T04:29:44.767Z,1.12
2022-08-31T04:34:55.079Z,1.10
2022-08-31T04:39:59.212Z,1.47
2022-08-31T04:45:04.939Z,0.94
2022-08-31T04:50:11.930Z,1.27
2022-08-31T04:55:19.007Z,1.62
2022-08-31T05:00:26.063Z,1.22
2022-08-31T05:05:33.087Z,1.64
2022-08-31T05:10:40.124Z,1.20
2022-08-31T05:15:47.231Z,0.74
2022-08-31T05:20:53.640Z,1.76
2022-08-31T05:26:00.666Z,2.29
2022-08-31T05:31:07.678Z,3.38
2022-08-31T05:36:14.734Z,3.24
2022-08-31T05:41:21.704Z,3.95
2022-08-31T05:46:28.838Z,5.47
2022-08-31T05:51:38.630Z,3.35
2022-08-31T05:56:42.902Z,5.09
2022-08-31T06:01:48.877Z,5.61
2022-08-31T06:06:55.890Z,6.74
2022-08-31T06:12:02.855Z,2.92
2022-08-31T06:17:09.433Z,6.01
2022-08-31T06:22:16.390Z,7.15
2022-08-31T06:27:23.513Z,3.20
2022-08-31T06:32:30.423Z,2.38
2022-08-31T06:37:37.541Z,2.33
2022-08-31T06:42:44.530Z,1.75
2022-08-31T06:47:51.609Z,1.92
2022-08-31T06:52:58.535Z,1.00
2022-08-31T06:58:05.678Z,2.68
2022-08-31T07:03:12.658Z,0.67
2022-08-31T07:08:19.774Z,3.76
2022-08-31T07:13:26.747Z,0.72
2022-08-31T07:18:33.925Z,1.31
2022-08-31T07:23:40.987Z,1.76
2022-08-31T07:28:48.218Z,0.89
2022-08-31T07:33:55.161Z,2.14
2022-08-31T07:39:03.901Z,1.11
2022-08-31T07:44:10.833Z,0.59
2022-08-31T07:49:17.853Z,0.61
2022-08-31T07:54:24.804Z,1.30
2022-08-31T07:59:31.892Z,1.07
2022-08-31T08:04:38.941Z,2.15
2022-08-31T08:09:46.043Z,0.49
2022-08-31T08:14:52.970Z,1.18
2022-08-31T08:20:00.053Z,1.71
2022-08-31T08:25:07.022Z,0.80
2022-08-31T08:30:14.114Z,1.12
2022-08-31T08:35:21.051Z,0.61
2022-08-31T08:40:28.188Z,1.35
2022-08-31T08:45:35.038Z,4.78
2022-08-31T08:50:39.859Z,2.05
2022-08-31T08:55:46.787Z,0.70
2022-08-31T09:00:55.266Z,0.68
2022-08-31T09:06:02.192Z,0.58
2022-08-31T09:11:21.070Z,0.46
2022-08-31T09:16:18.179Z,0.47
2022-08-31T09:21:25.040Z,0.68
2022-08-31T09:26:32.207Z,0.91
2022-08-31T09:31:39.188Z,0.82
2022-08-31T09:36:46.633Z,0.67
2022-08-31T09:41:53.593Z,1.32
2022-08-31T09:47:09.829Z,1.21
2022-08-31T09:52:06.730Z,1.44
2022-08-31T09:57:19.056Z,0.57
2022-08-31T10:02:15.488Z,0.46
2022-08-31T10:07:22.705Z,0.94
2022-08-31T10:12:29.631Z,0.76
2022-08-31T10:17:48.092Z,0.62
2022-08-31T10:22:45.225Z,1.63
2022-08-31T10:27:52.306Z,0.53
2022-08-31T10:32:59.415Z,0.59
2022-08-31T10:38:06.347Z,0.57
2022-08-31T10:43:13.749Z,1.12
2022-08-31T10:48:20.693Z,1.18
2022-08-31T10:53:31.733Z,0.92
2022-08-31T10:58:28.174Z,0.71
2022-08-31T11:03:36.345Z,0.50
2022-08-31T11:08:44.681Z,0.42
2022-08-31T11:14:03.236Z,0.48
2022-08-31T11:19:00.362Z,0.48
2022-08-31T11:24:08.611Z,0.47
2022-08-31T11:29:15.788Z,0.60
2022-08-31T11:34:22.716Z,2.37
2022-08-31T11:39:29.742Z,1.03
2022-08-31T11:44:36.738Z,0.41
2022-08-31T11:49:51.648Z,0.86
2022-08-31T11:54:48.620Z,1.23
2022-08-31T12:00:00.581Z,1.40
2022-08-31T12:05:02.020Z,0.54
2022-08-31T12:10:07.971Z,0.46
2022-08-31T12:15:14.923Z,0.97
2022-08-31T12:20:17.511Z,1.19
2022-08-31T12:25:24.474Z,0.77
2022-08-31T12:30:41.216Z,0.94
2022-08-31T12:35:38.076Z,0.99
2022-08-31T12:40:45.353Z,0.51
2022-08-31T12:45:52.358Z,0.87
2022-08-31T12:50:59.437Z,1.64
2022-08-31T12:56:06.356Z,1.39
2022-08-31T13:01:13.460Z,1.74
2022-08-31T13:11:39.798Z,2.38
2022-08-31T13:21:40.822Z,1.68
2022-08-31T13:26:53.332Z,0.79
2022-08-31T13:31:50.307Z,0.79
2022-08-31T13:37:03.216Z,1.21
2022-08-31T13:42:00.209Z,1.19
2022-08-31T13:47:10.135Z,1.82
2022-08-31T13:52:17.251Z,0.73
2022-08-31T13:57:24.217Z,1.45
2022-08-31T14:02:36.684Z,0.62
2022-08-31T14:07:37.769Z,0.92
2022-08-31T14:12:48.421Z,1.24
2022-08-31T14:18:24.006Z,1.07
2022-08-31T14:22:51.930Z,0.62
2022-08-31T14:27:58.861Z,0.70
2022-08-31T14:38:11.631Z,0.61
2022-08-31T14:48:19.739Z,1.46
2022-08-31T14:58:27.547Z,1.56
2022-08-31T15:03:38.676Z,1.43
2022-08-31T15:08:38.732Z,6.48
2022-08-31T15:18:44.513Z,1.51
2022-08-31T15:23:49.946Z,1.73
2022-08-31T15:28:56.883Z,1.27
2022-08-31T15:34:10.314Z,1.05
2022-08-31T15:39:07.009Z,0.98
2022-08-31T15:44:18.484Z,1.30
2022-08-31T15:49:16.849Z,0.56
2022-08-31T15:54:24.426Z,0.69
2022-08-31T15:59:31.417Z,0.63
2022-08-31T16:04:38.529Z,0.87
2022-08-31T16:09:45.445Z,1.26
2022-08-31T16:14:52.528Z,3.86
2022-08-31T16:19:59.506Z,2.22
2022-08-31T16:25:06.666Z,0.95
2022-08-31T16:30:14.062Z,0.55
2022-08-31T16:35:21.095Z,1.10
2022-08-31T16:45:28.744Z,2.02
2022-08-31T16:55:36.688Z,1.73
2022-08-31T17:05:44.816Z,1.94
2022-08-31T17:15:53.922Z,0.86
2022-08-31T17:26:01.868Z,0.67
2022-08-31T17:31:10.681Z,2.32
2022-08-31T17:36:17.735Z,0.89
2022-08-31T17:41:29.219Z,1.38
2022-08-31T17:46:26.434Z,1.64
2022-08-31T17:51:42.455Z,2.90
2022-08-31T17:56:39.580Z,1.28
2022-08-31T18:01:46.116Z,3.93
2022-08-31T18:06:53.184Z,2.39
2022-08-31T18:12:00.142Z,1.77
2022-08-31T18:17:07.364Z,2.07
2022-08-31T18:22:14.607Z,3.68
2022-08-31T18:27:21.508Z,3.96
2022-08-31T18:32:28.428Z,1.96
2022-08-31T18:37:35.636Z,1.73
2022-08-31T18:42:42.604Z,4.12
2022-08-31T18:48:13.692Z,2.14
2022-08-31T18:52:56.171Z,3.68
2022-08-31T18:58:03.350Z,1.93
2022-08-31T19:03:10.342Z,4.39
2022-08-31T19:08:17.351Z,2.98
2022-08-31T19:13:24.274Z,3.57
2022-08-31T19:18:31.445Z,2.87
2022-08-31T19:23:38.452Z,3.28
2022-08-31T19:28:45.585Z,5.11
2022-08-31T19:33:56.379Z,2.41
2022-08-31T19:38:58.884Z,3.48
2022-08-31T19:44:08.449Z,2.10
2022-08-31T19:49:12.003Z,3.76
2022-08-31T19:54:18.993Z,5.42
2022-08-31T19:59:25.954Z,3.92
2022-08-31T20:04:32.937Z,2.99
2022-08-31T20:09:39.946Z,2.29
2022-08-31T20:14:46.942Z,3.08
2022-08-31T20:19:54.243Z,3.13
2022-08-31T20:25:01.194Z,2.59
2022-08-31T20:30:08.541Z,4.75
2022-08-31T20:35:15.471Z,2.52
2022-08-31T20:40:22.554Z,3.21
2022-08-31T20:45:29.482Z,3.56
2022-08-31T20:50:36.594Z,2.90
2022-08-31T20:55:43.568Z,4.29
2022-08-31T21:00:50.650Z,3.05
2022-08-31T21:05:57.545Z,2.18
2022-08-31T21:11:04.688Z,2.29
2022-08-31T21:16:11.822Z,2.95
2022-08-31T21:21:20.832Z,3.23
2022-08-31T21:26:27.797Z,3.58
2022-08-31T21:31:34.905Z,5.84
2022-08-31T21:36:41.336Z,4.15
2022-08-31T21:41:48.518Z,7.31
2022-08-31T21:46:55.542Z,4.36
2022-08-31T21:52:02.555Z,5.84
2022-08-31T21:57:09.544Z,3.25
2022-08-31T22:02:16.823Z,3.58
2022-08-31T22:07:23.677Z,3.83
2022-08-31T22:12:30.733Z,4.96
2022-08-31T22:18:02.010Z,3.27
2022-08-31T22:22:44.519Z,4.73
2022-08-31T22:27:50.972Z,6.21
2022-08-31T22:32:58.080Z,4.98
2022-08-31T22:38:05.009Z,2.73
2022-08-31T22:43:12.106Z,4.13
2022-08-31T22:48:19.323Z,4.41
2022-08-31T22:53:27.753Z,4.72
2022-08-31T22:58:34.745Z,3.14
2022-08-31T23:03:41.885Z,7.27
2022-08-31T23:08:48.858Z,8.31
2022-08-31T23:13:55.902Z,5.17
2022-08-31T23:19:02.808Z,4.53
2022-08-31T23:24:09.888Z,4.47
2022-08-31T23:29:16.906Z,5.05
2022-08-31T23:34:24.013Z,3.77
2022-08-31T23:39:30.977Z,3.95
2022-08-31T23:44:38.144Z,6.22
2022-08-31T23:49:45.137Z,4.93
2022-08-31T23:54:52.299Z,3.90
